createdAt,value
2023-05-12T00:01:30.331Z,14.75
2023-05-12T00:04:02.265Z,14.75
2023-05-12T00:06:34.057Z,14.77
2023-05-12T00:09:06.369Z,14.67
2023-05-12T00:11:39.018Z,14.68
2023-05-12T00:14:11.502Z,14.61
2023-05-12T00:16:43.395Z,14.63
2023-05-12T00:19:15.387Z,14.61
2023-05-12T00:21:46.998Z,14.62
2023-05-12T00:24:18.713Z,14.60
2023-05-12T00:26:50.559Z,14.50
2023-05-12T00:29:22.188Z,14.43
2023-05-12T00:31:53.964Z,14.42
2023-05-12T00:34:25.909Z,14.29
2023-05-12T00:36:57.729Z,14.33
2023-05-12T00:39:29.380Z,14.39
2023-05-12T00:42:01.813Z,14.41
2023-05-12T00:44:33.694Z,14.40
2023-05-12T00:47:06.257Z,14.37
2023-05-12T00:49:38.265Z,14.32
2023-05-12T00:52:10.735Z,14.34
2023-05-12T00:54:45.204Z,14.22
2023-05-12T00:57:17.078Z,14.14
2023-05-12T00:59:49.275Z,14.14
2023-05-12T01:02:21.189Z,14.14
2023-05-12T01:04:54.375Z,14.11
2023-05-12T01:07:27.733Z,14.13
2023-05-12T01:10:00.212Z,14.10
2023-05-12T01:12:33.559Z,14.12
2023-05-12T01:15:04.817Z,14.04
2023-05-12T01:17:38.581Z,13.86
2023-05-12T01:20:16.944Z,13.82
2023-05-12T01:22:50.784Z,13.83
2023-05-12T01:25:25.163Z,13.79
2023-05-12T01:27:57.110Z,13.86
2023-05-12T01:30:30.389Z,13.89
2023-05-12T01:33:02.687Z,13.87
2023-05-12T01:35:34.801Z,13.81
2023-05-12T01:38:07.040Z,13.69
2023-05-12T01:40:42.432Z,13.72
2023-05-12T01:43:14.201Z,13.76
2023-05-12T01:45:45.895Z,13.75
2023-05-12T01:48:17.529Z,13.69
2023-05-12T01:50:49.574Z,13.69
2023-05-12T01:53:25.068Z,13.70
2023-05-12T01:55:56.859Z,13.65
2023-05-12T01:58:29.985Z,13.62
2023-05-12T02:01:03.574Z,13.66
2023-05-12T02:03:35.949Z,13.62
2023-05-12T02:06:08.076Z,13.59
2023-05-12T02:08:40.579Z,13.53
2023-05-12T02:11:12.394Z,13.46
2023-05-12T02:13:45.202Z,13.42
2023-05-12T02:16:17.131Z,13.35
2023-05-12T02:18:50.053Z,13.36
2023-05-12T02:21:22.265Z,13.36
2023-05-12T02:23:56.158Z,13.19
2023-05-12T02:26:27.949Z,13.17
2023-05-12T02:28:59.955Z,13.20
2023-05-12T02:31:31.926Z,13.19
2023-05-12T02:34:06.565Z,13.19
2023-05-12T02:36:38.688Z,13.18
2023-05-12T02:39:10.871Z,13.17
2023-05-12T02:41:42.561Z,13.16
2023-05-12T02:44:16.556Z,13.08
2023-05-12T02:46:48.332Z,13.10
2023-05-12T02:49:20.113Z,13.07
2023-05-12T02:51:51.877Z,12.96
2023-05-12T02:54:23.600Z,12.98
2023-05-12T02:56:56.540Z,13.02
2023-05-12T02:59:28.914Z,13.01
2023-05-12T03:02:01.077Z,12.96
2023-05-12T03:04:33.533Z,12.91
2023-05-12T03:07:05.904Z,12.88
2023-05-12T03:09:38.636Z,12.84
2023-05-12T03:12:11.267Z,12.76
2023-05-12T03:14:43.003Z,12.78
2023-05-12T03:17:14.823Z,12.70
2023-05-12T03:19:46.540Z,12.74
2023-05-12T03:22:18.371Z,12.67
2023-05-12T03:24:49.968Z,12.66
2023-05-12T03:27:21.912Z,12.67
2023-05-12T03:29:53.583Z,12.67
2023-05-12T03:32:25.315Z,12.58
2023-05-12T03:34:57.106Z,12.59
2023-05-12T03:37:28.977Z,12.49
2023-05-12T03:40:00.820Z,12.50
2023-05-12T03:42:33.121Z,12.58
2023-05-12T03:45:07.017Z,12.59
2023-05-12T03:47:40.552Z,12.65
2023-05-12T03:50:13.390Z,12.64
2023-05-12T03:52:45.245Z,12.62
2023-05-12T03:55:17.598Z,12.65
2023-05-12T03:57:50.352Z,12.59
2023-05-12T04:00:23.240Z,12.58
2023-05-12T04:02:55.033Z,12.62
2023-05-12T04:05:27.281Z,12.60
2023-05-12T04:08:01.218Z,12.56
2023-05-12T04:10:34.239Z,12.54
2023-05-12T04:13:05.898Z,12.51
2023-05-12T04:15:37.935Z,12.55
2023-05-12T04:18:10.236Z,12.45
2023-05-12T04:20:43.553Z,12.49
2023-05-12T04:23:15.861Z,12.58
2023-05-12T04:25:47.772Z,12.60
2023-05-12T04:28:19.865Z,12.66
2023-05-12T04:30:52.692Z,12.60
2023-05-12T04:33:26.449Z,12.66
2023-05-12T04:35:59.487Z,12.60
2023-05-12T04:38:31.278Z,12.64
2023-05-12T04:41:03.349Z,12.69
2023-05-12T04:46:10.370Z,12.69
2023-05-12T04:48:43.868Z,12.73
2023-05-12T04:51:14.024Z,12.69
2023-05-12T04:53:45.793Z,12.76
2023-05-12T04:56:17.564Z,12.76
2023-05-12T04:58:49.939Z,12.79
2023-05-12T05:01:21.812Z,12.89
2023-05-12T05:03:53.699Z,12.97
2023-05-12T05:06:25.913Z,12.94
2023-05-12T05:08:58.159Z,12.99
2023-05-12T05:11:30.706Z,13.05
2023-05-12T05:14:02.531Z,13.07
2023-05-12T05:16:34.823Z,13.08
2023-05-12T05:19:19.221Z,13.18
2023-05-12T05:21:56.160Z,13.21
2023-05-12T05:24:27.921Z,13.29
2023-05-12T05:26:59.784Z,13.35
2023-05-12T05:29:31.789Z,13.38
2023-05-12T05:32:04.398Z,13.45
2023-05-12T05:34:36.210Z,13.50
2023-05-12T05:37:08.565Z,13.47
2023-05-12T05:39:42.077Z,13.53
2023-05-12T05:42:14.169Z,13.60
2023-05-12T05:44:46.179Z,13.63
2023-05-12T05:47:18.338Z,13.61
2023-05-12T05:49:50.405Z,13.61
2023-05-12T05:52:24.442Z,13.67
2023-05-12T05:54:56.686Z,13.73
2023-05-12T05:57:31.068Z,13.80
2023-05-12T06:00:05.006Z,13.87
2023-05-12T06:02:45.394Z,13.97
2023-05-12T06:05:20.365Z,14.05
2023-05-12T06:07:51.651Z,14.11
2023-05-12T06:10:23.939Z,14.20
2023-05-12T06:12:56.371Z,14.26
2023-05-12T06:15:28.194Z,14.34
2023-05-12T06:18:00.477Z,14.40
2023-05-12T06:20:33.140Z,14.48
2023-05-12T06:23:05.537Z,14.55
2023-05-12T06:25:37.399Z,14.60
2023-05-12T06:28:09.366Z,14.66
2023-05-12T06:30:42.402Z,14.72
2023-05-12T06:33:14.283Z,14.77
2023-05-12T06:35:46.256Z,14.87
2023-05-12T06:38:20.560Z,14.93
2023-05-12T06:40:52.367Z,14.98
2023-05-12T06:43:24.810Z,15.07
2023-05-12T06:45:59.641Z,15.17
2023-05-12T06:48:31.353Z,15.21
2023-05-12T06:51:03.575Z,15.26
2023-05-12T06:53:37.584Z,15.32
2023-05-12T06:56:11.383Z,15.40
2023-05-12T06:58:43.127Z,15.47
2023-05-12T07:01:15.261Z,15.55
2023-05-12T07:03:47.072Z,15.62
2023-05-12T07:06:19.299Z,15.70
2023-05-12T07:08:51.197Z,15.77
2023-05-12T07:11:23.012Z,15.84
2023-05-12T07:13:55.084Z,15.94
2023-05-12T07:16:26.933Z,16.02
2023-05-12T07:18:58.790Z,16.10
2023-05-12T07:21:30.780Z,16.23
2023-05-12T07:24:02.850Z,16.32
2023-05-12T07:26:34.598Z,16.42
2023-05-12T07:29:13.698Z,16.49
2023-05-12T07:31:46.389Z,16.59
2023-05-12T07:34:18.222Z,16.72
2023-05-12T07:36:49.969Z,16.83
2023-05-12T07:39:23.654Z,16.92
2023-05-12T07:41:55.751Z,16.99
2023-05-12T07:44:28.434Z,17.05
2023-05-12T07:47:00.276Z,17.14
2023-05-12T07:49:32.208Z,17.21
2023-05-12T07:52:04.193Z,17.27
2023-05-12T07:54:36.080Z,17.31
2023-05-12T07:57:08.014Z,17.34
2023-05-12T07:59:40.269Z,17.40
2023-05-12T08:02:12.112Z,17.46
2023-05-12T08:04:44.510Z,17.54
2023-05-12T08:07:16.692Z,17.60
2023-05-12T08:09:48.769Z,17.73
2023-05-12T08:12:20.631Z,17.78
2023-05-12T08:14:52.449Z,17.84
2023-05-12T08:17:25.494Z,17.88
2023-05-12T08:19:58.191Z,17.92
2023-05-12T08:22:30.248Z,17.99
2023-05-12T08:25:02.214Z,18.01
2023-05-12T08:27:34.056Z,18.07
2023-05-12T08:30:06.900Z,18.13
2023-05-12T08:32:38.789Z,18.17
2023-05-12T08:35:10.754Z,18.20
2023-05-12T08:37:43.002Z,18.26
2023-05-12T08:40:21.436Z,18.29
2023-05-12T08:43:03.654Z,18.35
2023-05-12T08:45:36.961Z,18.40
2023-05-12T08:48:11.798Z,18.40
2023-05-12T08:50:43.889Z,18.44
2023-05-12T08:53:17.058Z,18.50
2023-05-12T08:57:08.294Z,18.55
2023-05-12T08:58:43.722Z,18.61
2023-05-12T09:01:17.422Z,18.67
2023-05-12T09:03:49.482Z,18.76
2023-05-12T09:06:21.525Z,18.84
2023-05-12T09:08:53.825Z,18.89
2023-05-12T09:11:25.919Z,18.92
2023-05-12T09:14:04.379Z,18.94
2023-05-12T09:16:40.597Z,18.99
2023-05-12T09:19:13.097Z,19.01
2023-05-12T09:21:45.271Z,19.07
2023-05-12T09:24:21.108Z,19.17
2023-05-12T09:26:54.464Z,19.28
2023-05-12T09:29:31.932Z,19.30
2023-05-12T09:32:06.015Z,19.33
2023-05-12T09:34:41.029Z,19.38
2023-05-12T09:37:15.218Z,19.45
2023-05-12T09:39:47.420Z,19.57
2023-05-12T09:42:19.745Z,19.71
2023-05-12T09:44:52.120Z,19.80
2023-05-12T09:47:27.926Z,19.87
2023-05-12T09:49:59.786Z,19.94
2023-05-12T09:52:33.547Z,20.06
2023-05-12T09:55:10.988Z,20.12
2023-05-12T09:57:44.611Z,20.25
2023-05-12T10:00:34.469Z,20.44
2023-05-12T10:03:15.228Z,20.58
2023-05-12T10:05:51.702Z,20.71
2023-05-12T10:08:28.423Z,20.87
2023-05-12T10:11:03.475Z,21.02
2023-05-12T10:13:36.150Z,21.05
2023-05-12T10:16:08.170Z,21.02
2023-05-12T10:18:44.418Z,21.09
2023-05-12T10:21:17.786Z,21.19
2023-05-12T10:23:51.323Z,21.37
2023-05-12T10:26:24.515Z,21.47
2023-05-12T10:28:56.888Z,21.57
2023-05-12T10:31:29.683Z,21.63
2023-05-12T10:34:03.475Z,21.65
2023-05-12T10:36:46.965Z,21.78
2023-05-12T10:39:19.460Z,21.89
2023-05-12T10:42:01.304Z,21.94
2023-05-12T10:44:33.069Z,21.96
2023-05-12T10:47:13.939Z,22.12
2023-05-12T10:49:46.466Z,22.26
2023-05-12T10:52:22.196Z,22.44
2023-05-12T10:55:03.110Z,22.50
2023-05-12T10:57:35.359Z,22.55
2023-05-12T11:00:13.949Z,22.62
2023-05-12T11:02:55.068Z,22.58
2023-05-12T11:05:36.344Z,22.63
2023-05-12T11:08:09.492Z,22.54
2023-05-12T11:10:47.185Z,22.53
2023-05-12T11:13:20.026Z,22.52
2023-05-12T11:15:53.693Z,22.68
2023-05-12T11:18:26.138Z,22.72
2023-05-12T11:20:58.005Z,22.81
2023-05-12T11:23:31.498Z,22.93
2023-05-12T11:26:04.909Z,23.05
2023-05-12T11:28:43.267Z,23.01
2023-05-12T11:31:20.811Z,23.11
2023-05-12T11:34:11.885Z,23.14
2023-05-12T11:36:46.747Z,23.19
2023-05-12T11:39:20.756Z,23.40
2023-05-12T11:42:02.057Z,23.42
2023-05-12T11:44:49.489Z,23.53
2023-05-12T11:47:22.175Z,23.59
2023-05-12T11:49:55.495Z,23.61
2023-05-12T11:52:28.276Z,23.70
2023-05-12T11:55:01.669Z,23.84
2023-05-12T11:57:36.096Z,23.86
2023-05-12T12:00:10.009Z,23.89
2023-05-12T12:02:43.449Z,23.93
2023-05-12T12:05:21.402Z,23.98
2023-05-12T12:07:53.314Z,23.93
2023-05-12T12:10:25.381Z,24.02
2023-05-12T12:12:57.100Z,24.00
2023-05-12T12:15:28.779Z,23.90
2023-05-12T12:18:01.228Z,23.90
2023-05-12T12:20:33.553Z,23.85
2023-05-12T12:23:05.649Z,23.83
2023-05-12T12:25:37.410Z,23.87
2023-05-12T12:28:09.238Z,23.86
2023-05-12T12:30:40.949Z,23.84
2023-05-12T12:33:12.958Z,23.94
2023-05-12T12:35:43.687Z,23.86
2023-05-12T12:38:15.593Z,23.72
2023-05-12T12:40:47.662Z,23.79
2023-05-12T12:43:19.448Z,23.79
2023-05-12T12:45:51.228Z,23.85
2023-05-12T12:48:23.238Z,23.95
2023-05-12T12:50:55.907Z,23.90
2023-05-12T12:53:27.836Z,23.95
2023-05-12T12:56:00.137Z,23.79
2023-05-12T12:58:32.657Z,23.56
2023-05-12T13:01:04.896Z,23.62
2023-05-12T13:03:36.744Z,23.67
2023-05-12T13:06:09.242Z,23.72
2023-05-12T13:08:40.788Z,23.72
2023-05-12T13:11:12.704Z,23.83
2023-05-12T13:13:44.804Z,23.88
2023-05-12T13:16:16.696Z,23.94
2023-05-12T13:18:48.457Z,23.89
2023-05-12T13:21:20.228Z,23.88
2023-05-12T13:23:52.008Z,23.77
2023-05-12T13:26:23.703Z,23.90
2023-05-12T13:28:55.877Z,24.08
2023-05-12T13:31:27.981Z,24.11
2023-05-12T13:33:59.781Z,24.10
2023-05-12T13:36:33.581Z,24.25
2023-05-12T13:39:05.420Z,24.42
2023-05-12T13:41:37.298Z,24.56
2023-05-12T13:44:09.509Z,24.45
2023-05-12T13:46:41.413Z,24.23
2023-05-12T13:49:13.690Z,24.38
2023-05-12T13:51:46.245Z,24.54
2023-05-12T13:54:18.384Z,24.34
2023-05-12T13:56:50.290Z,24.32
2023-05-12T13:59:22.285Z,23.85
2023-05-12T14:01:54.142Z,23.96
2023-05-12T14:04:27.143Z,24.31
2023-05-12T14:06:59.031Z,24.60
2023-05-12T14:09:30.811Z,24.84
2023-05-12T14:12:04.281Z,24.86
2023-05-12T14:14:36.220Z,24.48
2023-05-12T14:17:08.918Z,24.48
2023-05-12T14:19:41.091Z,24.86
2023-05-12T14:22:25.332Z,24.69
2023-05-12T14:24:58.324Z,24.20
2023-05-12T14:27:30.165Z,24.12
2023-05-12T14:30:02.039Z,24.34
2023-05-12T14:32:34.744Z,24.04
2023-05-12T14:35:06.619Z,23.84
2023-05-12T14:37:40.149Z,24.24
2023-05-12T14:40:14.434Z,24.37
2023-05-12T14:42:47.857Z,24.29
2023-05-12T14:45:20.657Z,24.64
2023-05-12T14:47:52.625Z,24.99
2023-05-12T14:50:24.408Z,25.07
2023-05-12T14:52:56.391Z,24.83
2023-05-12T14:55:29.787Z,24.78
2023-05-12T14:58:01.657Z,24.79
2023-05-12T15:00:34.353Z,24.89
2023-05-12T15:03:07.692Z,24.95
2023-05-12T15:05:56.846Z,24.99
2023-05-12T15:08:31.527Z,24.51
2023-05-12T15:11:03.852Z,24.03
2023-05-12T15:13:35.667Z,23.90
2023-05-12T15:16:08.182Z,24.26
2023-05-12T15:18:39.999Z,24.78
2023-05-12T15:21:11.854Z,25.37
2023-05-12T15:23:44.011Z,25.70
2023-05-12T15:26:31.872Z,25.81
2023-05-12T15:29:05.182Z,25.89
2023-05-12T15:31:37.077Z,25.96
2023-05-12T15:34:09.150Z,26.15
2023-05-12T15:36:41.321Z,26.17
2023-05-12T15:39:13.467Z,26.18
2023-05-12T15:41:45.490Z,26.21
2023-05-12T15:44:18.138Z,26.09
2023-05-12T15:46:49.916Z,25.76
2023-05-12T15:49:21.651Z,25.72
2023-05-12T15:51:54.058Z,25.26
2023-05-12T15:54:26.324Z,24.78
2023-05-12T15:56:57.992Z,24.33
2023-05-12T15:59:29.840Z,24.15
2023-05-12T16:02:02.098Z,24.30
2023-05-12T16:04:33.758Z,24.46
2023-05-12T16:07:05.778Z,24.56
2023-05-12T16:09:37.637Z,24.70
2023-05-12T16:12:11.311Z,24.85
2023-05-12T16:14:43.167Z,25.08
2023-05-12T16:17:15.016Z,25.42
2023-05-12T16:19:45.912Z,25.50
2023-05-12T16:22:17.715Z,25.58
2023-05-12T16:24:50.087Z,25.82
2023-05-12T16:27:20.268Z,26.21
2023-05-12T16:29:53.430Z,26.58
2023-05-12T16:32:25.919Z,26.63
2023-05-12T16:34:58.020Z,26.65
2023-05-12T16:37:29.734Z,26.59
2023-05-12T16:40:01.937Z,26.53
2023-05-12T16:42:32.058Z,26.46
2023-05-12T16:45:03.891Z,26.39
2023-05-12T16:47:36.335Z,26.23
2023-05-12T16:50:07.815Z,25.87
2023-05-12T16:52:39.952Z,25.27
2023-05-12T16:55:13.216Z,24.76
2023-05-12T16:57:45.446Z,24.47
2023-05-12T17:00:17.264Z,24.13
2023-05-12T17:02:49.069Z,23.76
2023-05-12T17:05:21.636Z,23.55
2023-05-12T17:07:54.374Z,23.29
2023-05-12T17:10:24.591Z,23.16
2023-05-12T17:12:56.524Z,22.89
2023-05-12T17:15:28.390Z,22.79
2023-05-12T17:18:00.195Z,22.70
2023-05-12T17:20:32.459Z,22.56
2023-05-12T17:23:04.235Z,22.47
2023-05-12T17:25:36.697Z,22.35
2023-05-12T17:28:06.997Z,22.18
2023-05-12T17:30:38.779Z,22.10
2023-05-12T17:33:10.770Z,22.00
2023-05-12T17:35:42.712Z,22.00
2023-05-12T17:38:14.449Z,22.00
2023-05-12T17:40:46.539Z,21.81
2023-05-12T17:43:18.510Z,21.61
2023-05-12T17:45:50.193Z,21.47
2023-05-12T17:48:22.319Z,21.36
2023-05-12T17:50:54.015Z,21.36
2023-05-12T17:53:26.113Z,21.33
2023-05-12T17:55:58.414Z,21.34
2023-05-12T17:58:30.221Z,21.24
2023-05-12T18:01:02.142Z,21.12
2023-05-12T18:03:34.134Z,21.10
2023-05-12T18:06:06.582Z,20.87
2023-05-12T18:08:38.409Z,20.81
2023-05-12T18:11:10.142Z,20.71
2023-05-12T18:13:42.755Z,20.70
2023-05-12T18:16:25.303Z,20.66
2023-05-12T18:19:00.458Z,20.51
2023-05-12T18:21:32.767Z,20.41
2023-05-12T18:24:04.753Z,20.30
2023-05-12T18:26:36.601Z,20.22
2023-05-12T18:29:08.303Z,20.12
2023-05-12T18:31:41.164Z,20.00
2023-05-12T18:34:13.122Z,19.90
2023-05-12T18:36:45.246Z,19.81
2023-05-12T18:39:18.279Z,19.81
2023-05-12T18:41:50.483Z,19.73
2023-05-12T18:44:22.960Z,19.67
2023-05-12T18:46:54.804Z,19.54
2023-05-12T18:49:27.072Z,19.55
2023-05-12T18:51:59.398Z,19.50
2023-05-12T18:54:31.484Z,19.47
2023-05-12T18:57:03.224Z,19.46
2023-05-12T18:59:35.069Z,19.42
2023-05-12T19:02:07.225Z,19.36
2023-05-12T19:04:39.503Z,19.34
2023-05-12T19:07:15.189Z,19.21
2023-05-12T19:09:48.223Z,19.10
2023-05-12T19:12:19.971Z,19.03
2023-05-12T19:14:52.208Z,18.97
2023-05-12T19:17:24.152Z,18.97
2023-05-12T19:19:58.125Z,18.89
2023-05-12T19:22:29.970Z,18.80
2023-05-12T19:25:02.028Z,18.72
2023-05-12T19:27:34.063Z,18.68
2023-05-12T19:30:06.962Z,18.71
2023-05-12T19:32:39.901Z,18.61
2023-05-12T19:35:12.559Z,18.49
2023-05-12T19:37:43.164Z,18.47
2023-05-12T19:40:15.587Z,18.51
2023-05-12T19:42:47.592Z,18.46
2023-05-12T19:45:19.914Z,18.45
2023-05-12T19:47:52.938Z,18.39
2023-05-12T19:50:27.058Z,18.36
2023-05-12T19:52:58.998Z,18.34
2023-05-12T19:55:31.577Z,18.28
2023-05-12T19:58:03.352Z,18.21
2023-05-12T20:00:36.972Z,18.09
2023-05-12T20:03:10.750Z,18.02
2023-05-12T20:05:43.149Z,17.90
2023-05-12T20:08:16.025Z,17.88
2023-05-12T20:10:48.446Z,17.84
2023-05-12T20:13:20.348Z,17.84
2023-05-12T20:15:52.204Z,17.83
2023-05-12T20:18:24.788Z,17.72
2023-05-12T20:20:56.593Z,17.66
2023-05-12T20:23:29.039Z,17.67
2023-05-12T20:26:01.118Z,17.66
2023-05-12T20:28:33.322Z,17.64
2023-05-12T20:31:06.412Z,17.57
2023-05-12T20:33:38.265Z,17.53
2023-05-12T20:36:10.358Z,17.55
2023-05-12T20:38:42.232Z,17.46
2023-05-12T20:41:14.076Z,17.35
2023-05-12T20:43:47.879Z,17.38
2023-05-12T20:46:19.848Z,17.34
2023-05-12T20:48:51.997Z,17.34
2023-05-12T20:51:24.055Z,17.28
2023-05-12T20:53:55.774Z,17.28
2023-05-12T20:56:27.694Z,17.23
2023-05-12T20:58:59.466Z,17.08
2023-05-12T21:01:31.486Z,17.07
2023-05-12T21:04:03.780Z,17.07
2023-05-12T21:06:37.710Z,17.03
2023-05-12T21:09:09.733Z,16.98
2023-05-12T21:11:41.808Z,16.95
2023-05-12T21:14:13.425Z,16.92
2023-05-12T21:16:45.186Z,16.93
2023-05-12T21:19:16.998Z,16.92
2023-05-12T21:21:48.719Z,16.78
2023-05-12T21:24:20.384Z,16.78
2023-05-12T21:26:52.153Z,16.70
2023-05-12T21:29:24.234Z,16.73
2023-05-12T21:31:56.434Z,16.67
2023-05-12T21:34:28.307Z,16.59
2023-05-12T21:37:00.579Z,16.63
2023-05-12T21:39:32.335Z,16.62
2023-05-12T21:42:04.134Z,16.60
2023-05-12T21:44:35.869Z,16.56
2023-05-12T21:47:08.567Z,16.57
2023-05-12T21:49:38.781Z,16.57
2023-05-12T21:52:10.706Z,16.51
2023-05-12T21:54:42.399Z,16.43
2023-05-12T21:57:14.035Z,16.42
2023-05-12T21:59:45.719Z,16.37
2023-05-12T22:02:17.492Z,16.33
2023-05-12T22:04:49.235Z,16.30
2023-05-12T22:07:20.924Z,16.25
2023-05-12T22:09:52.734Z,16.16
2023-05-12T22:12:24.440Z,16.10
2023-05-12T22:14:56.086Z,16.12
2023-05-12T22:17:27.921Z,16.15
2023-05-12T22:19:59.788Z,16.15
2023-05-12T22:22:31.682Z,16.10
2023-05-12T22:25:04.379Z,16.05
2023-05-12T22:27:34.533Z,16.04
2023-05-12T22:30:07.302Z,15.99
2023-05-12T22:32:37.498Z,15.97
2023-05-12T22:35:10.651Z,15.93
2023-05-12T22:37:42.457Z,15.95
2023-05-12T22:40:14.511Z,15.86
2023-05-12T22:42:46.658Z,15.88
2023-05-12T22:45:18.635Z,15.78
2023-05-12T22:47:50.359Z,15.78
2023-05-12T22:50:22.549Z,15.73
2023-05-12T22:52:57.282Z,15.68
2023-05-12T22:55:31.060Z,15.64
2023-05-12T22:58:02.694Z,15.61
2023-05-12T23:00:34.896Z,15.50
2023-05-12T23:03:07.277Z,15.42
2023-05-12T23:05:39.055Z,15.40
2023-05-12T23:08:10.747Z,15.45
2023-05-12T23:10:42.412Z,15.49
2023-05-12T23:13:14.150Z,15.48
2023-05-12T23:15:45.880Z,15.50
2023-05-12T23:18:17.584Z,15.50
2023-05-12T23:20:49.323Z,15.51
2023-05-12T23:23:21.335Z,15.46
2023-05-12T23:25:53.427Z,15.45
2023-05-12T23:28:25.258Z,15.37
2023-05-12T23:30:56.982Z,15.26
2023-05-12T23:33:28.640Z,15.25
2023-05-12T23:36:00.501Z,15.30
2023-05-12T23:38:32.198Z,15.34
2023-05-12T23:41:03.853Z,15.34
2023-05-12T23:43:36.031Z,15.27
2023-05-12T23:46:07.912Z,15.27
2023-05-12T23:48:39.571Z,15.29
2023-05-12T23:51:11.437Z,15.27
2023-05-12T23:53:43.196Z,15.28
2023-05-12T23:56:14.919Z,15.28
2023-05-12T23:58:46.901Z,15.30
